Time;durP1;ratioP1;P1;durP2;ratioP2;P2;SDS_P1;SDS_P2;PMS_P1;PMS_P2;Temp;Humidity;BMP_temperature;BMP_pressure;BME280_temperature;BME280_humidity;BME280_pressure;Samples;Min_cycle;Max_cycle;Signal;HPM_P1;HPM_P2
2023/07/11 00:02:22;;;;;;;54.27;3.03;;;;;;;25.74;49.97;99762.47;7311690;19;130950;-35
2023/07/11 00:04:47;;;;;;;32.43;2.07;;;;;;;25.62;50.14;99763.75;7310197;19;128772;-35
2023/07/11 00:07:12;;;;;;;51.60;3.13;;;;;;;25.51;50.33;99740.38;7310739;19;129066;-32
2023/07/11 00:09:38;;;;;;;75.03;4.53;;;;;;;26.00;53.21;99760.53;7309260;19;130896;-37
2023/07/11 00:12:03;;;;;;;5.40;0.63;;;;;;;26.18;53.30;99768.31;7311495;19;130076;-34
2023/07/11 00:14:29;;;;;;;29.07;1.87;;;;;;;26.24;53.35;99768.47;7310974;19;130251;-31
2023/07/11 00:16:54;;;;;;;34.23;2.07;;;;;;;26.22;53.66;99752.00;7310802;19;130877;-34
2023/07/11 00:19:20;;;;;;;30.50;1.93;;;;;;;26.29;53.23;99763.53;7310538;19;130092;-37
2023/07/11 00:21:46;;;;;;;49.67;3.13;;;;;;;26.34;53.46;99769.13;7310766;19;130466;-37
2023/07/11 00:24:12;;;;;;;27.35;1.75;;;;;;;26.24;53.74;99744.75;7311265;19;129191;-35
2023/07/11 00:26:38;;;;;;;44.88;2.45;;;;;;;26.36;53.83;99756.59;7311608;19;129090;-33
2023/07/11 00:29:14;;;;;;;40.83;2.30;;;;;;;26.40;54.00;99765.00;7311716;19;131261;-37
2023/07/11 00:31:40;;;;;;;27.43;1.87;;;;;;;26.37;53.65;99760.88;7311367;19;130307;-31
2023/07/11 00:34:05;;;;;;;32.70;2.10;;;;;;;26.30;53.76;99749.34;7311422;19;130483;-36
2023/07/11 00:36:30;;;;;;;42.17;2.40;;;;;;;26.38;53.89;99762.53;7309791;19;129473;-38
2023/07/11 00:38:56;;;;;;;44.57;2.60;;;;;;;26.38;54.15;99757.25;7309984;19;129590;-32
2023/07/11 00:41:22;;;;;;;66.27;4.03;;;;;;;25.95;50.17;99760.19;7312313;19;129553;-33
2023/07/11 00:43:47;;;;;;;26.90;1.65;;;;;;;25.72;49.83;99764.44;7316904;19;129646;-32
2023/07/11 00:46:18;;;;;;;23.50;1.50;;;;;;;25.61;49.59;99767.41;7316940;19;131529;-35
2023/07/11 00:48:56;;;;;;;42.90;2.53;;;;;;;25.78;53.55;99753.28;7316299;19;130994;-34
2023/07/11 00:51:41;;;;;;;45.40;2.90;;;;;;;26.13;53.38;99768.00;7313884;19;129202;-36
2023/07/11 00:54:10;;;;;;;11.73;0.85;;;;;;;26.20;53.59;99759.25;7316982;19;129506;-36
2023/07/11 00:56:41;;;;;;;58.20;3.72;;;;;;;26.26;53.73;99758.56;7315497;19;129459;-32
2023/07/11 00:59:08;;;;;;;21.40;1.50;;;;;;;26.29;53.27;99755.63;7316090;19;130190;-31
2023/07/11 01:01:34;;;;;;;73.25;4.18;;;;;;;26.32;53.70;99752.66;7315657;19;131144;-31
2023/07/11 01:04:03;;;;;;;32.43;1.90;;;;;;;26.36;53.96;99753.16;7316030;19;129159;-33
2023/07/11 01:06:30;;;;;;;38.40;2.35;;;;;;;26.35;53.37;99751.47;7316355;19;129930;-35
2023/07/11 01:08:57;;;;;;;27.30;1.95;;;;;;;26.35;53.75;99741.78;7315973;19;129208;-34
2023/07/11 01:11:25;;;;;;;35.40;2.08;;;;;;;26.36;53.42;99742.59;7314253;19;130479;-34
2023/07/11 01:13:51;;;;;;;43.78;2.80;;;;;;;26.37;53.77;99745.06;7315069;19;129241;-32
2023/07/11 01:16:16;;;;;;;17.07;1.30;;;;;;;26.37;54.12;99739.81;7316584;19;129315;-34
2023/07/11 01:18:42;;;;;;;51.93;3.27;;;;;;;26.38;53.74;99741.44;7314591;19;130155;-35
2023/07/11 01:21:08;;;;;;;38.60;2.42;;;;;;;25.89;50.89;99718.72;7313790;19;130424;-34
2023/07/11 01:23:34;;;;;;;50.43;2.93;;;;;;;25.75;49.46;99742.25;7315155;19;128880;-40
2023/07/11 01:26:02;;;;;;;26.53;1.67;;;;;;;25.66;50.27;99744.03;7315735;19;129051;-36
2023/07/11 01:28:28;;;;;;;50.83;2.83;;;;;;;25.78;53.03;99740.13;7314996;19;130224;-37
2023/07/11 01:30:53;;;;;;;40.30;2.50;;;;;;;26.12;52.88;99743.44;7312347;19;130598;-35
2023/07/11 01:33:19;;;;;;;37.00;2.13;;;;;;;26.24;53.81;99743.94;7315479;19;128874;-34
2023/07/11 01:35:44;;;;;;;45.57;2.80;;;;;;;26.30;53.34;99745.88;7314951;19;129012;-41
2023/07/11 01:38:09;;;;;;;25.07;1.63;;;;;;;26.32;53.93;99734.19;7315314;19;131016;-33
2023/07/11 01:40:35;;;;;;;31.33;1.90;;;;;;;26.35;53.60;99736.50;7313864;19;130646;-35
2023/07/11 01:43:01;;;;;;;46.90;2.77;;;;;;;26.36;53.33;99730.22;7316289;19;129473;-37
2023/07/11 01:45:27;;;;;;;26.83;1.80;;;;;;;26.38;54.13;99725.63;7315700;19;129269;-35
2023/07/11 01:47:52;;;;;;;62.77;3.87;;;;;;;26.38;53.72;99724.78;7313875;19;130730;-38
2023/07/11 01:50:17;;;;;;;27.20;1.67;;;;;;;26.36;54.02;99716.25;7314207;19;130538;-31
2023/07/11 01:52:43;;;;;;;30.27;1.83;;;;;;;26.39;54.07;99722.00;7314523;19;130447;-37
2023/07/11 01:55:10;;;;;;;23.90;1.50;;;;;;;26.40;53.95;99722.81;7315114;19;129651;-36
2023/07/11 01:57:35;;;;;;;;;;;;;;;26.48;53.55;99715.72;7315236;19;130842;-34
2023/07/11 02:00:00;;;;;;;85.70;5.00;;;;;;;26.17;50.94;99721.84;7313165;19;130502;-31
2023/07/11 02:02:25;;;;;;;25.37;1.70;;;;;;;25.80;49.93;99717.03;7315788;19;130009;-30
2023/07/11 02:04:51;;;;;;;34.80;2.20;;;;;;;25.71;49.39;99731.22;7315196;19;130503;-37
2023/07/11 02:07:16;;;;;;;32.83;2.10;;;;;;;25.65;49.73;99724.78;7314572;19;129185;-31
2023/07/11 02:09:41;;;;;;;44.20;2.57;;;;;;;26.00;52.99;99726.28;7314663;19;130764;-37
2023/07/11 02:12:09;;;;;;;61.37;3.70;;;;;;;26.21;53.57;99724.00;7315087;19;129881;-34
2023/07/11 02:14:40;;;;;;;31.67;1.95;;;;;;;26.27;53.17;99723.34;7315377;19;129205;-35
2023/07/11 02:17:06;;;;;;;89.70;5.45;;;;;;;26.31;53.90;99723.81;7312058;19;131393;-34
2023/07/11 02:19:31;;;;;;;39.40;2.30;;;;;;;26.34;53.61;99721.69;7313334;19;130847;-36
2023/07/11 02:21:57;;;;;;;44.00;2.60;;;;;;;26.37;53.39;99721.34;7314198;19;128772;-35
2023/07/11 02:24:22;;;;;;;24.70;1.70;;;;;;;26.39;53.67;99715.91;7314111;19;129167;-33
2023/07/11 02:26:48;;;;;;;36.10;2.20;;;;;;;26.37;53.58;99716.06;7313527;19;130706;-37
2023/07/11 02:29:13;;;;;;;61.77;3.90;;;;;;;26.36;54.20;99717.03;7312385;19;129396;-34
2023/07/11 02:31:39;;;;;;;27.80;1.80;;;;;;;26.40;53.80;99722.81;7313812;19;129219;-34
2023/07/11 02:34:05;;;;;;;50.83;3.00;;;;;;;26.39;53.80;99731.72;7313439;19;130763;-29
2023/07/11 02:36:30;;;;;;;35.23;2.07;;;;;;;26.40;53.96;99728.91;7313485;19;130144;-36
2023/07/11 02:38:56;;;;;;;35.67;2.20;;;;;;;26.29;51.70;99733.72;7313416;19;130296;-36
2023/07/11 02:41:21;;;;;;;35.63;2.40;;;;;;;25.85;50.14;99735.81;7310423;19;128981;-35
2023/07/11 02:43:47;;;;;;;24.67;1.50;;;;;;;25.69;49.40;99738.44;7313622;19;129603;-34
2023/07/11 02:46:16;;;;;;;39.50;2.33;;;;;;;25.66;49.82;99738.78;7312586;19;130472;-32
2023/07/11 02:48:43;;;;;;;30.83;1.90;;;;;;;26.07;53.74;99737.84;7313618;19;129336;-32
2023/07/11 02:51:08;;;;;;;31.80;2.00;;;;;;;26.23;53.28;99743.09;7310135;19;129080;-36
2023/07/11 02:53:34;;;;;;;27.60;1.93;;;;;;;26.29;53.47;99745.09;7313220;19;129179;-39
2023/07/11 02:55:59;;;;;;;79.80;4.73;;;;;;;26.22;53.40;99720.38;7311818;19;129934;-33
2023/07/11 02:58:24;;;;;;;49.23;3.13;;;;;;;26.36;53.90;99732.06;7312399;19;129207;-37
2023/07/11 03:00:53;;;;;;;26.30;1.60;;;;;;;26.37;53.35;99733.69;7311467;19;130271;-33
2023/07/11 03:03:19;;;;;;;49.83;3.13;;;;;;;26.38;53.49;99736.16;7311945;19;128979;-34
2023/07/11 03:05:46;;;;;;;45.73;2.70;;;;;;;26.38;54.02;99741.44;7313143;19;129145;-31
2023/07/11 03:08:11;;;;;;;18.90;1.25;;;;;;;26.39;53.88;99732.56;7313392;19;130400;-35
2023/07/11 03:10:37;;;;;;;23.20;1.50;;;;;;;26.39;54.15;99727.28;7310833;19;130152;-35
2023/07/11 03:13:03;;;;;;;30.60;1.97;;;;;;;26.40;53.71;99741.25;7312105;19;129000;-34
2023/07/11 03:15:28;;;;;;;87.70;5.13;;;;;;;26.40;53.64;99746.53;7309944;19;130717;-36
2023/07/11 03:17:53;;;;;;;26.37;1.63;;;;;;;26.40;53.63;99744.72;7312997;19;130147;-33
2023/07/11 03:20:19;;;;;;;22.83;1.50;;;;;;;25.93;50.22;99743.75;7311076;19;129572;-39
2023/07/11 03:22:44;;;;;;;26.83;1.80;;;;;;;25.70;50.03;99748.00;7312682;19;129152;-36
2023/07/11 03:25:09;;;;;;;57.17;3.30;;;;;;;25.60;49.72;99744.69;7312747;19;130611;-36
2023/07/11 03:27:35;;;;;;;60.87;3.77;;;;;;;25.88;53.40;99748.69;7311512;19;129541;-29
2023/07/11 03:30:00;;;;;;;49.17;3.00;;;;;;;26.16;53.29;99744.78;7311493;19;129637;-36
2023/07/11 03:32:26;;;;;;;49.60;2.97;;;;;;;26.27;53.44;99749.69;7311823;19;130004;-33
2023/07/11 03:34:51;;;;;;;41.23;2.50;;;;;;;26.32;53.75;99751.81;7313776;19;130339;-33
2023/07/11 03:37:16;;;;;;;28.00;1.73;;;;;;;26.27;53.16;99739.16;7312361;19;130450;-35
2023/07/11 03:39:42;;;;;;;41.00;2.73;;;;;;;26.38;53.92;99756.41;7310301;19;129676;-37
2023/07/11 03:42:07;;;;;;;36.80;2.23;;;;;;;26.39;53.38;99751.00;7312864;19;129461;-30
2023/07/11 03:44:33;;;;;;;72.70;4.37;;;;;;;26.40;54.00;99755.28;7311477;19;130290;-32
2023/07/11 03:46:58;;;;;;;36.00;2.43;;;;;;;26.32;53.62;99741.28;7311974;19;129650;-35
2023/07/11 03:49:23;;;;;;;25.03;1.57;;;;;;;26.40;53.73;99755.28;7314343;19;129066;-28
2023/07/11 03:51:49;;;;;;;39.30;2.20;;;;;;;26.40;53.81;99760.56;7313817;19;128867;-37
2023/07/11 03:54:14;;;;;;;37.40;2.10;;;;;;;26.40;53.87;99755.28;7313983;19;129463;-38
2023/07/11 03:56:39;;;;;;;59.23;3.77;;;;;;;26.31;54.32;99734.38;7313769;19;130519;-35
2023/07/11 03:59:05;;;;;;;28.00;1.77;;;;;;;25.91;49.79;99756.25;7312133;19;129410;-33
2023/07/11 04:01:30;;;;;;;33.60;2.03;;;;;;;25.73;49.77;99754.75;7312266;19;128999;-37
2023/07/11 04:03:55;;;;;;;26.80;1.70;;;;;;;25.75;50.60;99763.31;7312682;19;130835;-39
2023/07/11 04:06:21;;;;;;;28.33;1.87;;;;;;;25.92;52.68;99763.16;7312663;19;130961;-35
2023/07/11 04:08:47;;;;;;;69.57;4.20;;;;;;;26.14;53.31;99767.81;7308619;19;129544;-37
2023/07/11 04:11:13;;;;;;;47.80;2.90;;;;;;;26.26;53.70;99761.22;7309975;19;129816;-37
2023/07/11 04:13:38;;;;;;;9.38;0.77;;;;;;;26.31;53.70;99764.16;7310743;19;130553;-40
2023/07/11 04:16:04;;;;;;;12.97;1.03;;;;;;;26.34;53.43;99761.22;7315263;19;130770;-31
2023/07/11 04:18:29;;;;;;;31.20;1.93;;;;;;;26.37;53.89;99766.16;7318445;19;130924;-31
2023/07/11 04:20:55;;;;;;;50.47;2.97;;;;;;;26.38;53.63;99765.16;7315482;19;131700;-33
2023/07/11 04:23:20;;;;;;;38.83;2.53;;;;;;;26.39;53.57;99758.91;7318377;19;131031;-35
2023/07/11 04:25:46;;;;;;;78.03;4.57;;;;;;;26.37;54.20;99754.78;7317264;19;131632;-34
2023/07/11 04:28:12;;;;;;;25.55;1.63;;;;;;;26.40;53.85;99757.91;7317842;19;131674;-33
2023/07/11 04:30:37;;;;;;;38.40;2.33;;;;;;;26.40;53.79;99760.56;7316945;19;129698;-37
2023/07/11 04:33:02;;;;;;;25.00;1.80;;;;;;;26.40;54.27;99759.72;7317946;19;131623;-35
2023/07/11 04:35:29;;;;;;;26.47;1.63;;;;;;;26.41;53.69;99761.38;7316689;19;131237;-35
2023/07/11 04:37:55;;;;;;;79.68;4.88;;;;;;;26.26;51.07;99755.94;7316238;19;130819;-36
2023/07/11 04:40:20;;;;;;;20.03;1.37;;;;;;;25.83;49.85;99753.63;7317258;19;129401;-33
2023/07/11 04:42:46;;;;;;;52.43;3.10;;;;;;;25.78;49.81;99748.00;7317147;19;130557;-38
2023/07/11 04:45:11;;;;;;;50.87;3.00;;;;;;;25.70;49.79;99750.63;7313130;19;130897;-34
2023/07/11 04:47:37;;;;;;;45.93;2.63;;;;;;;26.03;53.62;99757.59;7314672;19;130577;-35
2023/07/11 04:50:04;;;;;;;58.23;3.67;;;;;;;26.21;53.37;99747.72;7315260;19;129587;-36
2023/07/11 04:52:29;;;;;;;35.80;2.38;;;;;;;26.23;53.69;99745.72;7316658;19;131429;-32
2023/07/11 04:54:54;;;;;;;52.57;3.10;;;;;;;26.31;53.09;99751.00;7315378;19;130717;-31
2023/07/11 04:57:21;;;;;;;47.20;2.67;;;;;;;26.36;53.60;99758.44;7316289;19;129019;-35
2023/07/11 04:59:47;;;;;;;28.83;1.80;;;;;;;26.37;53.95;99755.63;7316754;19;129377;-36
2023/07/11 05:02:12;;;;;;;32.60;2.03;;;;;;;26.38;54.03;99746.72;7315840;19;129479;-34
2023/07/11 05:04:40;;;;;;;28.47;1.80;;;;;;;26.37;53.73;99750.34;7316601;19;130578;-35
2023/07/11 05:07:06;;;;;;;90.38;5.43;;;;;;;26.39;53.88;99755.44;7314540;19;129552;-37
2023/07/11 05:09:32;;;;;;;20.47;1.30;;;;;;;26.40;53.96;99751.81;7316248;19;129860;-37
2023/07/11 05:11:59;;;;;;;34.43;2.27;;;;;;;26.40;54.32;99759.72;7316081;19;131904;-34
2023/07/11 05:14:24;;;;;;;26.13;1.73;;;;;;;26.40;53.99;99750.00;7316569;19;131100;-36
2023/07/11 05:16:50;;;;;;;43.20;2.53;;;;;;;26.40;53.91;99747.38;7316103;19;130346;-32
2023/07/11 05:19:15;;;;;;;83.30;4.90;;;;;;;26.03;50.92;99746.25;7313563;19;130721;-37
2023/07/11 05:21:40;;;;;;;29.00;1.90;;;;;;;25.75;49.94;99750.94;7315702;19;130667;-35
2023/07/11 05:24:06;;;;;;;56.17;3.37;;;;;;;25.59;49.70;99732.50;7314979;19;130300;-33
2023/07/11 05:26:32;;;;;;;56.67;3.13;;;;;;;25.75;53.35;99743.03;7313143;19;130291;-36
2023/07/11 05:28:57;;;;;;;25.93;1.53;;;;;;;26.12;53.16;99746.06;7315427;19;129508;-33
2023/07/11 05:31:23;;;;;;;26.53;1.70;;;;;;;26.25;53.72;99748.19;7312370;19;132223;-34
2023/07/11 05:33:51;;;;;;;34.93;2.10;;;;;;;26.28;54.01;99740.78;7315779;19;130876;-35
2023/07/11 05:38:51;;;;;;;36.03;2.17;;;;;;;26.36;53.38;99745.25;7316031;19;128996;-34
2023/07/11 05:41:17;;;;;;;83.83;5.10;;;;;;;26.38;53.89;99749.34;7311798;19;129568;-34
2023/07/11 05:43:42;;;;;;;32.53;2.00;;;;;;;26.39;53.21;99748.38;7315204;19;129784;-34
2023/07/11 05:46:07;;;;;;;67.23;3.97;;;;;;;26.39;54.11;99737.00;7314464;19;128943;-35
2023/07/11 05:48:33;;;;;;;29.80;1.90;;;;;;;26.41;53.77;99737.66;7314323;19;129628;-35
2023/07/11 05:51:04;;;;;;;19.23;1.37;;;;;;;26.40;54.22;99734.19;7311794;19;131208;-34
2023/07/11 05:53:30;;;;;;;26.98;1.80;;;;;;;26.39;53.94;99740.47;7314404;19;131309;-33
2023/07/11 05:55:57;;;;;;;45.43;2.53;;;;;;;26.40;53.84;99734.19;7315017;19;131124;-35
2023/07/11 05:58:22;;;;;;;;;;;;;;;26.03;51.47;99735.72;7314791;19;128910;-29
2023/07/11 06:00:50;;;;;;;27.88;1.67;;;;;;;25.73;49.48;99734.50;7312448;19;130622;-33
2023/07/11 06:03:15;;;;;;;59.55;3.63;;;;;;;25.66;49.45;99736.13;7312998;19;129596;-35
2023/07/11 06:05:41;;;;;;;44.87;2.60;;;;;;;25.80;53.35;99727.56;7314705;19;128766;-33
2023/07/11 06:08:06;;;;;;;24.10;1.50;;;;;;;26.13;53.31;99731.09;7314751;19;129677;-36
2023/07/11 06:10:33;;;;;;;33.00;2.10;;;;;;;26.22;53.56;99728.28;7310920;19;130116;-37
2023/07/11 06:12:58;;;;;;;;;;;;;;;26.40;53.56;99728.91;7314785;19;130481;-32
2023/07/11 06:15:24;;;;;;;82.63;4.77;;;;;;;26.36;53.58;99724.16;7314062;19;130086;-33
2023/07/11 06:17:49;;;;;;;68.07;4.20;;;;;;;26.37;53.63;99723.97;7312935;19;129792;-33
2023/07/11 06:20:14;;;;;;;23.07;1.53;;;;;;;26.38;54.03;99715.06;7313516;19;131536;-33
2023/07/11 06:22:40;;;;;;;34.20;2.10;;;;;;;26.39;53.56;99724.66;7312714;19;131086;-39
2023/07/11 06:25:06;;;;;;;21.60;1.37;;;;;;;26.40;53.57;99723.63;7314412;19;129226;-34
2023/07/11 06:27:31;;;;;;;31.03;2.07;;;;;;;26.40;53.68;99723.63;7313464;19;129092;-35
2023/07/11 06:29:56;;;;;;;27.53;1.70;;;;;;;26.40;53.95;99717.53;7312629;19;130142;-32
2023/07/11 06:32:22;;;;;;;65.73;3.67;;;;;;;26.40;54.37;99715.72;7313245;19;129776;-40
2023/07/11 06:34:47;;;;;;;36.33;2.17;;;;;;;26.39;53.61;99721.19;7312539;19;129193;-34
2023/07/11 06:37:14;;;;;;;51.13;3.20;;;;;;;26.39;53.71;99714.09;7313776;19;129188;-35
2023/07/11 06:39:39;;;;;;;65.85;4.10;;;;;;;25.86;50.92;99712.94;7310996;19;129336;-31
2023/07/11 06:42:05;;;;;;;49.33;2.73;;;;;;;25.70;50.00;99719.84;7313987;19;130339;-34
2023/07/11 06:44:31;;;;;;;57.60;3.40;;;;;;;25.64;49.18;99715.22;7313518;19;129110;-33
2023/07/11 06:46:56;;;;;;;27.67;1.77;;;;;;;25.93;53.31;99716.56;7313872;19;129129;-30
2023/07/11 06:49:21;;;;;;;24.17;1.43;;;;;;;26.17;53.24;99722.69;7312977;19;129525;-32
2023/07/11 06:51:49;;;;;;;36.33;2.37;;;;;;;26.27;53.35;99723.34;7310966;19;129199;-33
2023/07/11 06:54:15;;;;;;;26.83;1.58;;;;;;;26.31;53.51;99711.44;7314005;19;129564;-37
2023/07/11 06:56:40;;;;;;;53.77;3.47;;;;;;;26.33;53.65;99706.84;7311172;19;128958;-34
2023/07/11 06:59:05;;;;;;;29.00;1.57;;;;;;;26.37;53.87;99712.59;7312925;19;130271;-33
2023/07/11 07:01:32;;;;;;;45.37;2.60;;;;;;;26.39;53.60;99710.63;7312538;19;129132;-37
2023/07/11 07:03:57;;;;;;;30.05;2.13;;;;;;;26.29;53.79;99695.00;7313596;19;129160;-37
2023/07/11 07:06:22;;;;;;;24.50;1.60;;;;;;;26.40;54.08;99718.38;7312970;19;129333;-32
2023/07/11 07:08:48;;;;;;;55.77;3.40;;;;;;;26.30;53.93;99694.00;7311078;19;130145;-37
2023/07/11 07:11:15;;;;;;;38.20;2.27;;;;;;;26.39;53.94;99711.47;7311143;19;131436;-36
2023/07/11 07:13:40;;;;;;;;;;;;;;;26.48;54.02;99710.44;7314487;19;129070;-30
2023/07/11 07:16:06;;;;;;;47.30;3.13;;;;;;;26.40;53.99;99707.81;7310558;19;130660;-34
2023/07/11 07:18:35;;;;;;;43.13;2.50;;;;;;;25.95;50.22;99714.59;7311695;19;129400;-36
2023/07/11 07:21:02;;;;;;;54.17;3.10;;;;;;;25.71;50.23;99696.97;7309197;19;130121;-37
2023/07/11 07:23:28;;;;;;;24.70;1.55;;;;;;;25.67;49.73;99700.91;7313920;19;130171;-35
2023/07/11 07:25:59;;;;;;;24.53;1.53;;;;;;;25.89;53.95;99702.91;7313076;19;129437;-36
2023/07/11 07:28:26;;;;;;;51.47;3.03;;;;;;;26.14;53.67;99699.31;7310677;19;130395;-34
2023/07/11 07:30:53;;;;;;;44.38;2.67;;;;;;;26.25;53.45;99696.31;7310875;19;130366;-33
2023/07/11 07:33:20;;;;;;;78.43;4.50;;;;;;;26.30;53.63;99690.53;7312688;19;129652;-35
2023/07/11 07:35:46;;;;;;;24.02;1.52;;;;;;;26.32;54.06;99689.38;7312133;19;129157;-33
2023/07/11 07:38:11;;;;;;;45.50;2.43;;;;;;;26.35;53.75;99681.13;7311546;19;130150;-36
2023/07/11 07:40:38;;;;;;;52.33;2.87;;;;;;;26.37;53.64;99671.25;7309954;19;132010;-32
2023/07/11 07:43:03;;;;;;;32.35;1.90;;;;;;;26.38;53.92;99667.63;7312175;19;128875;-35
2023/07/11 07:45:28;;;;;;;62.30;3.77;;;;;;;26.39;54.05;99655.25;7310287;19;129120;-38
2023/07/11 07:47:54;;;;;;;25.60;1.70;;;;;;;26.37;53.75;99655.44;7311550;19;129205;-35
2023/07/11 07:50:19;;;;;;;45.53;2.50;;;;;;;26.39;53.67;99664.00;7308700;19;130290;-36
2023/07/11 07:52:46;;;;;;;38.40;2.67;;;;;;;26.41;53.86;99663.84;7311851;19;128886;-35
2023/07/11 07:55:11;;;;;;;28.30;1.80;;;;;;;26.39;54.25;99658.72;7312433;19;129498;-38
2023/07/11 07:57:37;;;;;;;51.70;3.07;;;;;;;26.17;51.37;99648.88;7310574;19;130816;-41
2023/07/11 08:00:04;;;;;;;42.63;2.40;;;;;;;25.82;50.65;99667.66;7310319;19;130059;-37
2023/07/11 08:02:31;;;;;;;25.80;1.58;;;;;;;25.76;50.35;99656.97;7311963;19;129329;-37
2023/07/11 08:04:57;;;;;;;54.75;3.30;;;;;;;25.66;49.58;99657.13;7311142;19;130661;-33
2023/07/11 08:07:24;;;;;;;30.50;1.77;;;;;;;26.07;52.97;99653.50;7311048;19;129517;-29
2023/07/11 08:09:49;;;;;;;;;;;;;;;26.32;53.37;99652.47;7310115;19;130326;-37
2023/07/11 08:12:14;;;;;;;24.00;1.45;;;;;;;26.30;52.96;99654.47;7308363;19;130695;-33
2023/07/11 08:14:40;;;;;;;37.90;2.37;;;;;;;26.32;53.18;99652.47;7310060;19;129619;-30
2023/07/11 08:17:06;;;;;;;96.35;5.80;;;;;;;26.33;53.23;99646.22;7309178;19;131241;-32
2023/07/11 08:19:32;;;;;;;34.43;2.17;;;;;;;26.36;53.64;99643.22;7310262;19;130819;-34
2023/07/11 08:21:58;;;;;;;34.03;2.07;;;;;;;26.38;54.11;99645.69;7310629;19;128956;-37
2023/07/11 08:24:23;;;;;;;23.27;1.40;;;;;;;26.35;53.69;99636.31;7310564;19;128990;-35
2023/07/11 08:26:50;;;;;;;37.50;2.27;;;;;;;26.39;53.44;99642.91;7310863;19;129501;-31
2023/07/11 08:29:15;;;;;;;71.55;4.18;;;;;;;26.38;53.64;99635.97;7308938;19;130455;-38
2023/07/11 08:31:41;;;;;;;31.43;1.93;;;;;;;26.38;54.00;99625.44;7309558;19;128922;-34
2023/07/11 08:34:06;;;;;;;37.27;2.10;;;;;;;26.39;54.10;99631.53;7311101;19;130511;-30
2023/07/11 08:36:31;;;;;;;54.83;3.03;;;;;;;26.33;53.16;99630.38;7309627;19;130437;-34
2023/07/11 08:38:57;;;;;;;46.33;2.53;;;;;;;25.82;49.91;99622.88;7310822;19;130460;-36
2023/07/11 08:41:22;;;;;;;52.00;3.20;;;;;;;25.71;50.22;99620.59;7306980;19;130773;-35
2023/07/11 08:43:49;;;;;;;29.27;1.83;;;;;;;25.59;49.17;99616.63;7309717;19;129506;-39
2023/07/11 08:46:17;;;;;;;45.95;2.60;;;;;;;25.99;53.90;99616.63;7309570;19;129113;-35
2023/07/11 08:48:51;;;;;;;40.47;2.42;;;;;;;26.20;53.52;99616.09;7309120;19;130237;-34
2023/07/11 08:51:37;;;;;;;26.23;1.50;;;;;;;26.28;53.95;99614.25;7307899;19;128811;-32
2023/07/11 08:54:27;;;;;;;27.25;1.67;;;;;;;26.33;53.45;99604.03;7310044;19;129165;-39
2023/07/11 08:56:54;;;;;;;37.95;2.30;;;;;;;26.33;53.67;99600.59;7307389;19;130581;-29
2023/07/11 08:59:29;;;;;;;33.97;1.95;;;;;;;26.35;53.83;99602.06;7309645;19;130921;-34
2023/07/11 09:02:33;;;;;;;66.85;3.97;;;;;;;26.37;54.20;99594.81;7311458;19;129602;-32
2023/07/11 09:05:00;;;;;;;38.45;2.42;;;;;;;26.37;53.97;99589.53;7315934;19;130215;-31
2023/07/11 09:07:36;;;;;;;33.65;2.00;;;;;;;26.38;54.11;99593.78;7316187;19;129081;-31
2023/07/11 09:10:13;;;;;;;79.22;4.60;;;;;;;26.37;54.04;99597.44;7313395;19;131413;-36
2023/07/11 09:12:49;;;;;;;29.77;1.73;;;;;;;26.29;53.74;99584.28;7317274;19;129144;-36
2023/07/11 09:15:26;;;;;;;7.32;0.57;;;;;;;26.39;53.79;99592.81;7316272;19;129532;-35
2023/07/11 09:18:08;;;;;;;;;;;;;;;26.01;51.82;99585.69;7316042;19;131126;-36
2023/07/11 09:20:56;;;;;;;29.52;1.90;;;;;;;25.79;50.65;99583.72;7315155;19;130146;-37
2023/07/11 09:23:42;;;;;;;28.33;1.77;;;;;;;25.72;50.01;99581.94;7315969;19;130603;-35
2023/07/11 09:26:16;;;;;;;50.83;3.17;;;;;;;25.95;53.43;99588.16;7315959;19;129940;-33
2023/07/11 09:28:42;;;;;;;31.90;1.88;;;;;;;26.14;53.25;99570.16;7315403;19;129207;-32
2023/07/11 09:31:18;;;;;;;68.97;3.97;;;;;;;26.26;53.94;99574.06;7312967;19;131555;-35
2023/07/11 09:33:51;;;;;;;48.60;2.63;;;;;;;26.29;53.69;99576.38;7315550;19;129006;-35
2023/07/11 09:36:45;;;;;;;37.80;2.28;;;;;;;26.35;53.76;99573.06;7315317;19;129778;-33
2023/07/11 09:39:41;;;;;;;71.15;4.03;;;;;;;26.39;53.47;99569.09;7313518;19;130141;-33
2023/07/11 09:42:12;;;;;;;80.45;4.75;;;;;;;26.36;53.83;99569.41;7314250;19;129465;-35
2023/07/11 09:44:38;;;;;;;23.50;1.70;;;;;;;26.36;53.95;99569.41;7316440;19;129058;-33
2023/07/11 09:47:17;;;;;;;78.67;4.83;;;;;;;26.40;53.81;99569.91;7315010;19;130168;-35
2023/07/11 09:49:45;;;;;;;47.38;2.85;;;;;;;26.26;54.00;99555.63;7313854;19;130659;-36
2023/07/11 09:52:19;;;;;;;42.83;2.70;;;;;;;26.34;53.72;99563.50;7313209;19;130440;-33
2023/07/11 09:54:46;;;;;;;45.20;2.53;;;;;;;26.35;53.66;99557.25;7314492;19;128906;-37
2023/07/11 09:57:12;;;;;;;;;;;;;;;26.04;53.33;99543.19;7314864;19;129442;-36
2023/07/11 09:59:42;;;;;;;24.33;1.42;;;;;;;25.79;49.79;99561.81;7315156;19;130336;-33
2023/07/11 10:02:15;;;;;;;27.90;1.63;;;;;;;25.69;50.91;99564.63;7315092;19;130425;-38
2023/07/11 10:04:42;;;;;;;64.43;3.65;;;;;;;25.79;52.88;99549.47;7314049;19;129164;-29
2023/07/11 10:07:13;;;;;;;75.13;4.55;;;;;;;26.08;53.34;99544.47;7314450;19;129152;-28
2023/07/11 10:09:49;;;;;;;28.95;1.75;;;;;;;26.23;53.96;99548.06;7315390;19;130199;-32
2023/07/11 10:12:22;;;;;;;31.83;2.13;;;;;;;26.26;53.59;99544.28;7312012;19;129252;-37
2023/07/11 10:14:53;;;;;;;16.25;1.08;;;;;;;26.30;53.82;99538.47;7313529;19;130035;-37
2023/07/11 10:17:23;;;;;;;49.58;2.97;;;;;;;26.22;54.25;99511.31;7313893;19;129838;-39
2023/07/11 10:19:50;;;;;;;43.55;2.40;;;;;;;26.32;53.74;99525.94;7313727;19;130142;-36
2023/07/11 10:22:19;;;;;;;26.40;1.65;;;;;;;26.32;53.50;99527.75;7315346;19;130550;-35
2023/07/11 10:24:45;;;;;;;25.80;1.63;;;;;;;26.35;53.59;99520.34;7313704;19;129692;-37
2023/07/11 10:27:18;;;;;;;48.75;3.22;;;;;;;26.35;53.68;99517.69;7313636;19;129027;-35
2023/07/11 10:29:49;;;;;;;44.97;2.65;;;;;;;26.26;54.20;99499.47;7312725;19;131028;-33
2023/07/11 10:32:25;;;;;;;40.78;2.33;;;;;;;26.37;53.80;99504.34;7312867;19;129290;-39
2023/07/11 10:34:57;;;;;;;24.58;1.50;;;;;;;26.37;54.04;99513.06;7314389;19;129247;-39
2023/07/11 10:37:42;;;;;;;23.30;1.50;;;;;;;25.91;51.07;99499.88;7316246;19;129885;-32
2023/07/11 10:40:10;;;;;;;9.43;0.70;;;;;;;25.75;50.84;99494.69;7312639;19;129273;-32
2023/07/11 10:42:54;;;;;;;50.70;3.17;;;;;;;25.68;50.76;99490.06;7312756;19;129355;-31
2023/07/11 10:45:26;;;;;;;30.75;1.80;;;;;;;25.97;54.07;99486.84;7313151;19;129866;-33
2023/07/11 10:47:59;;;;;;;46.05;2.63;;;;;;;26.16;53.13;99485.66;7313592;19;129135;-35
2023/07/11 10:50:59;;;;;;;39.45;2.30;;;;;;;26.28;53.12;99481.66;7311663;19;130185;-33
2023/07/11 10:53:36;;;;;;;42.30;2.38;;;;;;;26.28;53.58;99466.66;7311319;19;129642;-31
2023/07/11 10:56:13;;;;;;;44.30;2.33;;;;;;;26.33;53.67;99466.94;7313208;19;128748;-38
2023/07/11 10:58:38;;;;;;;;;;;;;;;26.43;54.02;99466.72;7313703;19;129334;-32
2023/07/11 11:01:09;;;;;;;25.37;1.60;;;;;;;26.35;53.79;99454.44;7311979;19;132825;-31
2023/07/11 11:03:35;;;;;;;26.30;1.70;;;;;;;26.33;53.86;99452.97;7312287;19;131257;-35
2023/07/11 11:06:14;;;;;;;42.07;2.37;;;;;;;26.26;53.90;99431.72;7311024;19;128822;-36
2023/07/11 11:09:07;;;;;;;29.75;1.83;;;;;;;26.38;54.17;99451.44;7313136;19;129892;-41
2023/07/11 11:12:10;;;;;;;42.45;2.45;;;;;;;26.39;54.18;99442.56;7311566;19;130377;-34
2023/07/11 11:14:42;;;;;;;29.52;1.92;;;;;;;26.33;54.12;99437.16;7312886;19;130217;-32
2023/07/11 11:17:31;;;;;;;64.93;3.92;;;;;;;25.98;53.15;99438.44;7312312;19;128882;-31
2023/07/11 11:20:05;;;;;;;74.35;4.28;;;;;;;25.75;49.92;99431.47;7310300;19;129309;-31
2023/07/11 11:22:55;;;;;;;44.58;2.42;;;;;;;25.64;50.64;99435.28;7312913;19;130199;-34
2023/07/11 11:25:52;;;;;;;43.97;2.53;;;;;;;25.98;53.97;99437.63;7312809;19;129248;-31
2023/07/11 11:28:31;;;;;;;43.55;2.53;;;;;;;26.18;53.90;99426.50;7312228;19;130044;-28